Time;durP1;ratioP1;P1;durP2;ratioP2;P2;SDS_P1;SDS_P2;PMS_P1;PMS_P2;Temp;Humidity;BMP_temperature;BMP_pressure;BME280_temperature;BME280_humidity;BME280_pressure;Samples;Min_cycle;Max_cycle;Signal;HPM_P1;HPM_P2
2022/08/25 00:01:42;;;;;;;;;;;21.90;57.60;;;;;;5128509;27;19927;-66
2022/08/25 00:04:11;;;;;;;;;;;21.80;58.10;;;;;;5133128;27;19919;-66
2022/08/25 00:06:45;;;;;;;;;;;21.90;58.10;;;;;;5128194;27;20027;-65
2022/08/25 00:09:13;;;;;;;;;;;21.80;58.60;;;;;;5122931;27;20025;-65
2022/08/25 00:11:40;;;;;;;;;;;21.80;58.60;;;;;;5134074;27;19919;-65
2022/08/25 00:14:11;;;;;;;;;;;21.80;58.60;;;;;;5128396;27;19919;-66
2022/08/25 00:16:38;;;;;;;;;;;21.80;58.70;;;;;;5119679;27;19920;-66
2022/08/25 00:19:06;;;;;;;;;;;21.80;58.90;;;;;;5131741;27;19923;-66
2022/08/25 00:21:34;;;;;;;;;;;21.70;59.20;;;;;;5130189;27;19933;-66
2022/08/25 00:24:02;;;;;;;;;;;21.70;59.40;;;;;;5128016;27;19919;-66
2022/08/25 00:26:29;;;;;;;;;;;21.70;59.70;;;;;;5127555;27;19976;-66
2022/08/25 00:28:55;;;;;;;;;;;21.80;59.30;;;;;;5133576;27;19923;-66
2022/08/25 00:31:23;;;;;;;;;;;21.80;59.40;;;;;;5124181;27;20394;-65
2022/08/25 00:33:50;;;;;;;;;;;21.80;59.80;;;;;;5122787;27;19926;-66
2022/08/25 00:36:17;;;;;;;;;;;21.80;59.80;;;;;;5125440;27;19919;-70
2022/08/25 00:38:46;;;;;;;;;;;21.80;60.10;;;;;;5132120;27;20448;-66
2022/08/25 00:41:14;;;;;;;;;;;21.80;60.30;;;;;;5129124;27;19923;-66
2022/08/25 00:43:46;;;;;;;;;;;21.80;60.30;;;;;;5130459;27;19919;-66
2022/08/25 00:46:14;;;;;;;;;;;21.80;60.50;;;;;;5128416;27;19965;-66
2022/08/25 00:48:43;;;;;;;;;;;21.70;60.60;;;;;;5129274;27;19919;-66
2022/08/25 00:51:11;;;;;;;;;;;21.70;61.00;;;;;;5131334;27;19926;-66
2022/08/25 00:53:39;;;;;;;;;;;21.70;61.20;;;;;;5132603;27;19933;-66
2022/08/25 00:56:07;;;;;;;;;;;21.70;61.20;;;;;;5127820;27;19923;-67
2022/08/25 00:58:35;;;;;;;;;;;21.70;61.10;;;;;;5122913;27;20386;-67
2022/08/25 01:01:02;;;;;;;;;;;21.70;61.40;;;;;;5129044;27;19919;-66
2022/08/25 01:03:32;;;;;;;;;;;21.70;61.50;;;;;;5129474;27;20367;-66
2022/08/25 01:05:59;;;;;;;;;;;21.70;61.40;;;;;;5131848;27;19923;-66
2022/08/25 01:08:27;;;;;;;;;;;21.70;61.60;;;;;;5126873;27;19926;-66
2022/08/25 01:10:55;;;;;;;;;;;21.70;61.50;;;;;;5130262;27;19954;-66
2022/08/25 01:13:25;;;;;;;;;;;21.60;62.10;;;;;;5130570;27;19926;-66
2022/08/25 01:15:53;;;;;;;;;;;21.60;62.40;;;;;;5122620;27;19930;-66
2022/08/25 01:18:20;;;;;;;;;;;21.60;62.30;;;;;;5128223;27;19927;-66
2022/08/25 01:20:50;;;;;;;;;;;21.60;62.50;;;;;;5131222;27;20046;-66
2022/08/25 01:23:17;;;;;;;;;;;21.60;62.30;;;;;;5129605;27;20380;-67
2022/08/25 01:25:48;;;;;;;;;;;21.60;62.60;;;;;;5128579;27;19919;-66
2022/08/25 01:28:15;;;;;;;;;;;21.60;62.60;;;;;;5124901;27;19919;-66
2022/08/25 01:30:43;;;;;;;;;;;21.50;62.90;;;;;;5129054;27;19946;-66
2022/08/25 01:33:10;;;;;;;;;;;21.50;62.80;;;;;;5132357;27;20401;-66
2022/08/25 01:35:37;;;;;;;;;;;21.50;63.10;;;;;;5129782;27;19919;-66
2022/08/25 01:38:06;;;;;;;;;;;21.50;63.10;;;;;;5132258;27;19926;-66
2022/08/25 01:40:33;;;;;;;;;;;21.50;62.80;;;;;;5131644;27;19930;-67
2022/08/25 01:43:06;;;;;;;;;;;21.50;63.00;;;;;;5129207;27;19923;-66
2022/08/25 01:45:33;;;;;;;;;;;21.50;63.00;;;;;;5119622;27;19919;-66
2022/08/25 01:48:00;;;;;;;;;;;21.50;63.00;;;;;;5121927;27;19965;-67
2022/08/25 01:50:26;;;;;;;;;;;21.50;63.20;;;;;;5132376;27;19920;-66
2022/08/25 01:52:55;;;;;;;;;;;21.30;63.70;;;;;;5129030;27;20402;-66
2022/08/25 01:55:23;;;;;;;;;;;21.40;63.60;;;;;;5132060;27;19926;-66
2022/08/25 01:57:49;;;;;;;;;;;21.30;63.50;;;;;;5130488;27;19920;-66
2022/08/25 02:00:17;;;;;;;;;;;21.30;63.50;;;;;;5127174;27;19920;-65
2022/08/25 02:02:46;;;;;;;;;;;21.30;63.60;;;;;;5129184;27;19923;-66
2022/08/25 02:05:15;;;;;;;;;;;21.30;63.60;;;;;;5135602;27;19919;-67
2022/08/25 02:07:42;;;;;;;;;;;21.20;63.60;;;;;;5129908;27;19919;-65
2022/08/25 02:10:09;;;;;;;;;;;21.20;63.70;;;;;;5134886;27;20372;-66
2022/08/25 02:12:37;;;;;;;;;;;21.20;63.90;;;;;;5132584;27;19926;-66
2022/08/25 02:15:05;;;;;;;;;;;21.10;64.10;;;;;;5130887;27;20357;-66
2022/08/25 02:17:32;;;;;;;;;;;21.10;64.30;;;;;;5135035;27;20334;-66
2022/08/25 02:19:58;;;;;;;;;;;21.10;64.30;;;;;;5134743;27;19919;-66
2022/08/25 02:22:25;;;;;;;;;;;21.10;64.50;;;;;;5130668;27;20291;-66
2022/08/25 02:24:52;;;;;;;;;;;21.00;64.70;;;;;;5134639;27;20463;-66
2022/08/25 02:27:19;;;;;;;;;;;21.00;65.00;;;;;;5134709;27;19929;-66
2022/08/25 02:29:47;;;;;;;;;;;21.00;65.10;;;;;;5132923;27;19927;-66
2022/08/25 02:32:14;;;;;;;;;;;20.90;65.20;;;;;;5126271;27;20305;-66
2022/08/25 02:34:40;;;;;;;;;;;20.90;65.30;;;;;;5135784;27;19919;-66
2022/08/25 02:37:08;;;;;;;;;;;20.90;65.40;;;;;;5134370;27;19946;-66
2022/08/25 02:39:35;;;;;;;;;;;20.80;65.60;;;;;;5127393;27;19948;-66
2022/08/25 02:42:02;;;;;;;;;;;20.80;65.70;;;;;;5135103;27;19967;-66
2022/08/25 02:44:30;;;;;;;;;;;20.70;65.80;;;;;;5135126;27;19919;-66
2022/08/25 02:46:58;;;;;;;;;;;20.70;65.90;;;;;;5135131;27;19919;-65
2022/08/25 02:49:25;;;;;;;;;;;20.80;65.80;;;;;;5132078;27;19919;-66
2022/08/25 02:51:52;;;;;;;;;;;20.70;66.00;;;;;;5129468;27;19920;-66
2022/08/25 02:54:19;;;;;;;;;;;20.70;66.20;;;;;;5131420;27;19945;-66
2022/08/25 02:56:47;;;;;;;;;;;20.60;66.20;;;;;;5130760;27;20288;-70
2022/08/25 02:59:14;;;;;;;;;;;20.60;66.40;;;;;;5135300;27;19925;-66
2022/08/25 03:01:40;;;;;;;;;;;20.50;66.80;;;;;;5127335;27;21660;-66
2022/08/25 03:04:08;;;;;;;;;;;20.60;66.60;;;;;;5134905;27;19920;-66
2022/08/25 03:06:35;;;;;;;;;;;20.50;66.80;;;;;;5126277;27;20308;-66
2022/08/25 03:09:02;;;;;;;;;;;20.50;66.80;;;;;;5139122;27;19926;-66
2022/08/25 03:11:28;;;;;;;;;;;20.50;66.90;;;;;;5130149;27;20380;-66
2022/08/25 03:13:55;;;;;;;;;;;20.50;67.00;;;;;;5133875;27;20380;-66
2022/08/25 03:16:22;;;;;;;;;;;20.40;67.30;;;;;;5132114;27;19919;-65
2022/08/25 03:18:49;;;;;;;;;;;20.40;67.40;;;;;;5134507;27;19926;-66
2022/08/25 03:21:17;;;;;;;;;;;20.30;67.50;;;;;;5130620;27;19919;-66
2022/08/25 03:23:45;;;;;;;;;;;20.30;67.80;;;;;;5129620;27;19920;-66
2022/08/25 03:28:55;;;;;;;;;;;20.30;68.00;;;;;;5137864;27;20019;-67
2022/08/25 03:31:24;;;;;;;;;;;20.30;68.10;;;;;;5127720;27;20065;-66
2022/08/25 03:33:51;;;;;;;;;;;20.30;68.10;;;;;;5130206;27;19927;-66
2022/08/25 03:36:19;;;;;;;;;;;20.20;68.30;;;;;;5134957;27;19919;-66
2022/08/25 03:38:46;;;;;;;;;;;20.20;68.40;;;;;;5129041;27;20012;-67
2022/08/25 03:41:15;;;;;;;;;;;20.20;68.40;;;;;;5132576;27;20010;-66
2022/08/25 03:43:42;;;;;;;;;;;20.10;68.50;;;;;;5133843;27;20272;-66
2022/08/25 03:46:09;;;;;;;;;;;20.10;68.60;;;;;;5132892;27;20025;-66
2022/08/25 03:48:35;;;;;;;;;;;20.10;68.70;;;;;;5133503;27;19919;-67
2022/08/25 03:51:02;;;;;;;;;;;20.10;68.90;;;;;;5128572;27;19965;-65
2022/08/25 03:53:30;;;;;;;;;;;20.10;69.00;;;;;;5130956;27;20403;-65
2022/08/25 03:55:57;;;;;;;;;;;20.10;68.90;;;;;;5133313;27;19919;-66
2022/08/25 03:58:24;;;;;;;;;;;20.10;69.00;;;;;;5130059;27;19924;-67
2022/08/25 04:00:50;;;;;;;;;;;20.00;69.10;;;;;;5124969;27;19924;-66
2022/08/25 04:03:17;;;;;;;;;;;20.10;69.00;;;;;;5127523;27;19919;-65
2022/08/25 04:05:44;;;;;;;;;;;20.00;69.20;;;;;;5127651;27;20376;-66
2022/08/25 04:08:11;;;;;;;;;;;20.00;69.30;;;;;;5133233;27;19920;-66
2022/08/25 04:10:39;;;;;;;;;;;19.90;69.30;;;;;;5128056;27;19920;-66
2022/08/25 04:13:06;;;;;;;;;;;19.90;69.40;;;;;;5131198;27;20372;-66
2022/08/25 04:15:33;;;;;;;;;;;19.90;69.30;;;;;;5127696;27;20330;-65
2022/08/25 04:17:59;;;;;;;;;;;19.90;69.30;;;;;;5125268;27;19923;-65
2022/08/25 04:20:26;;;;;;;;;;;19.90;69.40;;;;;;5130625;27;19919;-66
2022/08/25 04:22:54;;;;;;;;;;;19.90;69.40;;;;;;5130570;27;19927;-66
2022/08/25 04:25:20;;;;;;;;;;;19.80;69.80;;;;;;5123780;27;19927;-65
2022/08/25 04:27:49;;;;;;;;;;;19.80;70.10;;;;;;5131392;27;19923;-68
2022/08/25 04:30:16;;;;;;;;;;;19.80;70.20;;;;;;5123723;27;19919;-66
2022/08/25 04:32:42;;;;;;;;;;;19.80;70.40;;;;;;5125937;27;19920;-66
2022/08/25 04:35:09;;;;;;;;;;;19.70;70.40;;;;;;5126701;27;20357;-66
2022/08/25 04:37:36;;;;;;;;;;;19.70;70.70;;;;;;5132579;27;19923;-67
2022/08/25 04:40:04;;;;;;;;;;;19.70;71.00;;;;;;5131001;27;20253;-65
2022/08/25 04:42:30;;;;;;;;;;;19.70;71.00;;;;;;5127569;27;19949;-67
2022/08/25 04:45:00;;;;;;;;;;;19.70;71.10;;;;;;5123140;27;19919;-67
2022/08/25 04:47:27;;;;;;;;;;;19.60;71.20;;;;;;5132860;27;20022;-65
2022/08/25 04:49:54;;;;;;;;;;;19.60;71.20;;;;;;5131953;27;19926;-65
2022/08/25 04:52:21;;;;;;;;;;;19.60;71.10;;;;;;5128218;27;20384;-66
2022/08/25 04:54:48;;;;;;;;;;;19.60;71.10;;;;;;5127007;27;19919;-65
2022/08/25 04:57:14;;;;;;;;;;;19.60;71.10;;;;;;5130056;27;19920;-66
2022/08/25 04:59:41;;;;;;;;;;;19.60;71.30;;;;;;5123627;27;20343;-67
2022/08/25 05:02:09;;;;;;;;;;;19.60;71.30;;;;;;5126753;27;19919;-66
2022/08/25 05:04:37;;;;;;;;;;;19.50;71.40;;;;;;5131616;27;19926;-65
2022/08/25 05:07:04;;;;;;;;;;;19.60;71.40;;;;;;5129863;27;19934;-65
2022/08/25 05:09:30;;;;;;;;;;;19.60;71.30;;;;;;5126490;27;19919;-66
2022/08/25 05:11:57;;;;;;;;;;;19.60;71.40;;;;;;5132188;27;20379;-65
2022/08/25 05:14:24;;;;;;;;;;;19.60;71.30;;;;;;5131439;27;19934;-66
2022/08/25 05:16:51;;;;;;;;;;;19.60;71.50;;;;;;5130718;27;19958;-65
2022/08/25 05:19:19;;;;;;;;;;;19.50;71.80;;;;;;5127544;27;19920;-65
2022/08/25 05:21:45;;;;;;;;;;;19.60;71.70;;;;;;5125302;27;20296;-66
2022/08/25 05:24:12;;;;;;;;;;;19.60;71.90;;;;;;5123002;27;19934;-65
2022/08/25 05:26:39;;;;;;;;;;;19.60;72.00;;;;;;5132044;27;19927;-65
2022/08/25 05:29:06;;;;;;;;;;;19.60;72.10;;;;;;5124870;27;19920;-66
2022/08/25 05:31:34;;;;;;;;;;;19.60;71.90;;;;;;5120565;27;19953;-67
2022/08/25 05:34:05;;;;;;;;;;;19.60;71.60;;;;;;5139320;27;19931;-66
2022/08/25 05:36:33;;;;;;;;;;;19.70;71.50;;;;;;5119541;27;19923;-65
2022/08/25 05:39:00;;;;;;;;;;;19.70;71.50;;;;;;5129032;27;20426;-65
2022/08/25 05:41:28;;;;;;;;;;;19.70;71.50;;;;;;5131474;27;19931;-65
2022/08/25 05:43:54;;;;;;;;;;;19.70;71.70;;;;;;5129272;27;20308;-65
2022/08/25 05:46:21;;;;;;;;;;;19.70;71.70;;;;;;5131674;27;19923;-65
2022/08/25 05:48:49;;;;;;;;;;;19.70;71.70;;;;;;5132253;27;20427;-66
2022/08/25 05:51:16;;;;;;;;;;;19.80;71.70;;;;;;5131638;27;19927;-66
2022/08/25 05:53:45;;;;;;;;;;;19.80;71.70;;;;;;5131318;27;20531;-66
2022/08/25 05:56:12;;;;;;;;;;;19.90;71.60;;;;;;5131247;27;20289;-66
2022/08/25 05:58:40;;;;;;;;;;;19.90;71.40;;;;;;5122630;27;19919;-66
2022/08/25 06:03:47;;;;;;;;;;;20.00;71.10;;;;;;5127792;27;19963;-66
2022/08/25 06:06:15;;;;;;;;;;;20.00;71.00;;;;;;5128093;27;19927;-66
2022/08/25 06:08:43;;;;;;;;;;;20.00;71.20;;;;;;5137386;27;19927;-66
2022/08/25 06:11:11;;;;;;;;;;;20.10;71.00;;;;;;5125625;27;19964;-66
2022/08/25 06:13:38;;;;;;;;;;;20.10;70.70;;;;;;5129615;27;19998;-66
2022/08/25 06:16:04;;;;;;;;;;;20.10;70.70;;;;;;5126054;27;19972;-66
2022/08/25 06:18:31;;;;;;;;;;;20.20;70.50;;;;;;5125045;27;19927;-67
2022/08/25 06:20:58;;;;;;;;;;;20.30;70.50;;;;;;5124414;27;20015;-67
2022/08/25 06:23:25;;;;;;;;;;;20.30;70.40;;;;;;5129767;27;19919;-67
2022/08/25 06:25:55;;;;;;;;;;;20.40;70.20;;;;;;5128762;27;19919;-67
2022/08/25 06:28:22;;;;;;;;;;;20.50;69.90;;;;;;5126409;27;19927;-66
2022/08/25 06:30:48;;;;;;;;;;;20.50;70.00;;;;;;5128511;27;19926;-67
2022/08/25 06:33:15;;;;;;;;;;;20.60;70.10;;;;;;5128533;27;19933;-65
2022/08/25 06:35:42;;;;;;;;;;;20.60;70.10;;;;;;5128917;27;20288;-67
2022/08/25 06:38:09;;;;;;;;;;;20.70;69.50;;;;;;5126662;27;19925;-67
2022/08/25 06:40:36;;;;;;;;;;;20.80;69.20;;;;;;5122162;27;19923;-67
2022/08/25 06:43:07;;;;;;;;;;;20.90;69.10;;;;;;5124849;27;19927;-67
2022/08/25 06:45:34;;;;;;;;;;;21.10;68.60;;;;;;5127177;27;20014;-67
2022/08/25 06:48:01;;;;;;;;;;;21.10;68.60;;;;;;5128408;27;19924;-67
2022/08/25 06:50:28;;;;;;;;;;;21.20;68.30;;;;;;5135361;27;19927;-67
2022/08/25 06:52:55;;;;;;;;;;;21.30;68.30;;;;;;5132839;27;19926;-67
2022/08/25 06:55:22;;;;;;;;;;;21.50;68.10;;;;;;5127971;27;19927;-67
2022/08/25 06:57:52;;;;;;;;;;;21.60;68.10;;;;;;5134686;27;19926;-68
2022/08/25 07:00:21;;;;;;;;;;;21.70;67.90;;;;;;5130131;27;20637;-67
2022/08/25 07:02:48;;;;;;;;;;;21.90;67.70;;;;;;5129991;27;19919;-66
2022/08/25 07:05:15;;;;;;;;;;;21.90;67.80;;;;;;5131349;27;19926;-67
2022/08/25 07:07:43;;;;;;;;;;;22.10;68.00;;;;;;5133767;27;19920;-67
2022/08/25 07:10:10;;;;;;;;;;;22.20;67.70;;;;;;5134567;27;19920;-67
2022/08/25 07:12:37;;;;;;;;;;;22.30;67.40;;;;;;5131396;27;20010;-67
2022/08/25 07:15:04;;;;;;;;;;;22.40;67.30;;;;;;5133216;27;20439;-67
2022/08/25 07:17:32;;;;;;;;;;;22.50;66.90;;;;;;5133777;27;19927;-67
2022/08/25 07:19:59;;;;;;;;;;;22.60;67.00;;;;;;5135181;27;19926;-67
2022/08/25 07:22:26;;;;;;;;;;;22.80;67.00;;;;;;5133555;27;20270;-66
2022/08/25 07:24:53;;;;;;;;;;;22.90;66.50;;;;;;5127408;27;19924;-66
2022/08/25 07:27:21;;;;;;;;;;;23.00;66.50;;;;;;5129011;27;19937;-66
2022/08/25 07:29:48;;;;;;;;;;;23.10;66.20;;;;;;5134503;27;19919;-67
2022/08/25 07:32:15;;;;;;;;;;;23.30;66.30;;;;;;5133774;27;20006;-67
2022/08/25 07:37:28;;;;;;;;;;;23.50;65.70;;;;;;5133615;27;19926;-67
2022/08/25 07:39:55;;;;;;;;;;;23.60;65.40;;;;;;5128936;27;19923;-67
2022/08/25 07:42:21;;;;;;;;;;;23.80;65.20;;;;;;5127718;27;19969;-67
2022/08/25 07:44:48;;;;;;;;;;;23.90;64.50;;;;;;5131936;27;19919;-67
2022/08/25 07:47:15;;;;;;;;;;;24.10;64.40;;;;;;5133864;27;19926;-67
2022/08/25 07:49:44;;;;;;;;;;;24.20;64.70;;;;;;5132971;27;19927;-68
2022/08/25 07:52:10;;;;;;;;;;;24.20;64.10;;;;;;5122949;27;19980;-67
2022/08/25 07:54:37;;;;;;;;;;;24.50;63.50;;;;;;5130158;27;19959;-66
2022/08/25 07:57:05;;;;;;;;;;;24.60;63.30;;;;;;5132849;27;19919;-65
2022/08/25 07:59:32;;;;;;;;;;;24.70;62.60;;;;;;5131041;27;19926;-68
2022/08/25 08:01:59;;;;;;;;;;;24.90;62.30;;;;;;5132120;27;19919;-66
2022/08/25 08:04:26;;;;;;;;;;;25.00;62.20;;;;;;5128865;27;19920;-64
2022/08/25 08:06:55;;;;;;;;;;;25.10;61.40;;;;;;5132876;27;19935;-66
2022/08/25 08:09:21;;;;;;;;;;;25.10;61.80;;;;;;5127084;27;19923;-66
2022/08/25 08:11:48;;;;;;;;;;;25.30;60.30;;;;;;5127745;27;19927;-65
2022/08/25 08:14:15;;;;;;;;;;;25.50;60.20;;;;;;5131680;27;19920;-66
2022/08/25 08:16:42;;;;;;;;;;;25.50;60.30;;;;;;5128289;27;20015;-66
2022/08/25 08:19:09;;;;;;;;;;;25.70;59.60;;;;;;5128121;27;19927;-66
2022/08/25 08:21:36;;;;;;;;;;;25.80;59.80;;;;;;5133250;27;19962;-67
2022/08/25 08:24:05;;;;;;;;;;;26.00;59.10;;;;;;5131602;27;20345;-66
2022/08/25 08:26:32;;;;;;;;;;;26.10;58.40;;;;;;5131621;27;19955;-66
2022/08/25 08:28:59;;;;;;;;;;;26.30;58.50;;;;;;5132399;27;20029;-67
2022/08/25 08:31:27;;;;;;;;;;;26.30;57.40;;;;;;5133745;27;20031;-67
2022/08/25 08:33:54;;;;;;;;;;;26.40;56.50;;;;;;5119376;27;19924;-67
2022/08/25 08:36:21;;;;;;;;;;;26.50;55.90;;;;;;5129221;27;19963;-66
2022/08/25 08:38:48;;;;;;;;;;;26.50;56.00;;;;;;5129829;27;19972;-65
2022/08/25 08:44:21;;;;;;;;;;;26.60;55.50;;;;;;5128687;27;19976;-66
2022/08/25 08:46:53;;;;;;;;;;;26.70;56.00;;;;;;5127258;27;19926;-67
2022/08/25 08:49:22;;;;;;;;;;;26.70;55.60;;;;;;5128784;27;20023;-65
2022/08/25 08:51:53;;;;;;;;;;;26.90;55.10;;;;;;5129513;27;20403;-66
2022/08/25 08:54:23;;;;;;;;;;;27.00;54.00;;;;;;5132456;27;19919;-65
2022/08/25 08:56:55;;;;;;;;;;;27.00;54.00;;;;;;5132796;27;20330;-66
2022/08/25 08:59:25;;;;;;;;;;;27.00;54.10;;;;;;5131979;27;19919;-66
2022/08/25 09:01:57;;;;;;;;;;;27.10;53.90;;;;;;5088867;28;19966;-67
2022/08/25 09:04:27;;;;;;;;;;;27.10;53.80;;;;;;5088243;28;19936;-66
2022/08/25 09:06:55;;;;;;;;;;;27.20;54.00;;;;;;5076086;28;20346;-65
2022/08/25 09:09:25;;;;;;;;;;;27.30;53.10;;;;;;5081450;28;20320;-66
2022/08/25 09:11:55;;;;;;;;;;;27.40;53.60;;;;;;5085769;28;19920;-66
2022/08/25 09:14:30;;;;;;;;;;;27.50;52.80;;;;;;5089992;28;19919;-66
2022/08/25 09:17:00;;;;;;;;;;;27.50;52.70;;;;;;5084363;28;19930;-67
2022/08/25 09:19:41;;;;;;;;;;;27.70;52.50;;;;;;5091534;28;20389;-66
2022/08/25 09:22:15;;;;;;;;;;;27.80;51.80;;;;;;5083510;28;19920;-67
2022/08/25 09:24:49;;;;;;;;;;;27.90;52.30;;;;;;5089562;28;19974;-67
2022/08/25 09:27:21;;;;;;;;;;;27.90;52.30;;;;;;5087601;28;19927;-66
2022/08/25 09:29:55;;;;;;;;;;;27.90;52.40;;;;;;5088476;28;19920;-66
2022/08/25 09:32:22;;;;;;;;;;;27.80;52.60;;;;;;5085749;28;19920;-67
2022/08/25 09:34:50;;;;;;;;;;;27.90;52.20;;;;;;5091362;28;19926;-66
2022/08/25 09:37:17;;;;;;;;;;;27.90;52.10;;;;;;5086735;28;19935;-68
2022/08/25 09:39:43;;;;;;;;;;;28.00;51.90;;;;;;5084875;28;19920;-66
2022/08/25 09:42:10;;;;;;;;;;;28.10;51.80;;;;;;5082953;28;19927;-67
2022/08/25 09:44:43;;;;;;;;;;;28.20;51.60;;;;;;5081319;28;19927;-67
2022/08/25 09:47:15;;;;;;;;;;;28.30;51.30;;;;;;5089173;28;19966;-67
2022/08/25 09:49:42;;;;;;;;;;;28.50;50.10;;;;;;5087095;28;19927;-67
2022/08/25 09:52:22;;;;;;;;;;;28.60;50.20;;;;;;5075098;28;19920;-67
2022/08/25 09:54:49;;;;;;;;;;;28.60;50.60;;;;;;5084622;28;19928;-66
2022/08/25 09:57:27;;;;;;;;;;;28.70;50.40;;;;;;5091375;28;19920;-67
2022/08/25 09:59:56;;;;;;;;;;;28.80;49.70;;;;;;5094531;28;19963;-66
2022/08/25 10:02:25;;;;;;;;;;;29.00;49.30;;;;;;5126836;27;20472;-66
2022/08/25 10:04:51;;;;;;;;;;;29.10;49.10;;;;;;5131571;27;19954;-66
2022/08/25 10:07:24;;;;;;;;;;;29.00;48.40;;;;;;5120413;27;19927;-65
2022/08/25 10:09:53;;;;;;;;;;;29.10;48.30;;;;;;5126715;27;19934;-66
2022/08/25 10:12:23;;;;;;;;;;;29.10;48.20;;;;;;5128058;27;19941;-67
2022/08/25 10:14:49;;;;;;;;;;;29.10;47.90;;;;;;5132245;27;19919;-66
2022/08/25 10:17:23;;;;;;;;;;;29.10;47.90;;;;;;5125155;27;20399;-66
2022/08/25 10:19:50;;;;;;;;;;;29.10;47.90;;;;;;5131982;27;20006;-67
2022/08/25 10:22:23;;;;;;;;;;;29.10;47.50;;;;;;5129726;27;19931;-67
2022/08/25 10:24:54;;;;;;;;;;;29.20;47.80;;;;;;5133951;27;19981;-66
2022/08/25 10:27:24;;;;;;;;;;;29.40;47.60;;;;;;5126931;27;19920;-68
2022/08/25 10:30:06;;;;;;;;;;;29.50;47.30;;;;;;5135729;27;20018;-67
2022/08/25 10:32:40;;;;;;;;;;;29.60;47.00;;;;;;5131456;27;19919;-67
2022/08/25 10:35:09;;;;;;;;;;;29.60;46.90;;;;;;5132778;27;20004;-68
2022/08/25 10:37:37;;;;;;;;;;;29.60;46.60;;;;;;5134531;27;20328;-69
2022/08/25 10:40:10;;;;;;;;;;;29.50;46.80;;;;;;5125465;27;19923;-67
2022/08/25 10:42:39;;;;;;;;;;;29.50;46.70;;;;;;5127929;27;19919;-66
2022/08/25 10:48:11;;;;;;;;;;;29.50;46.50;;;;;;5136025;27;20276;-67
2022/08/25 10:50:40;;;;;;;;;;;29.50;46.70;;;;;;5128454;27;19949;-68
2022/08/25 10:53:12;;;;;;;;;;;29.60;46.80;;;;;;5133591;27;19919;-67
2022/08/25 10:55:43;;;;;;;;;;;29.50;46.70;;;;;;5126564;27;19926;-67
2022/08/25 10:58:16;;;;;;;;;;;29.50;46.90;;;;;;5127956;27;19930;-67
2022/08/25 11:00:48;;;;;;;;;;;29.30;46.50;;;;;;5131932;27;19919;-67
2022/08/25 11:03:22;;;;;;;;;;;29.20;46.90;;;;;;5134328;27;19929;-68
2022/08/25 11:05:51;;;;;;;;;;;29.10;47.00;;;;;;5123423;27;19920;-67
2022/08/25 11:08:22;;;;;;;;;;;29.10;47.50;;;;;;5132233;27;19919;-66
2022/08/25 11:10:52;;;;;;;;;;;29.10;47.50;;;;;;5135953;27;19919;-67
2022/08/25 11:13:24;;;;;;;;;;;29.10;47.80;;;;;;5128752;27;19926;-69
2022/08/25 11:15:53;;;;;;;;;;;29.10;47.30;;;;;;5131387;27;19954;-67
2022/08/25 11:18:21;;;;;;;;;;;29.10;47.80;;;;;;5134181;27;19926;-67
2022/08/25 11:20:51;;;;;;;;;;;29.10;47.50;;;;;;5131530;27;19934;-67
2022/08/25 11:23:21;;;;;;;;;;;29.10;47.40;;;;;;5126267;27;19926;-68
2022/08/25 11:25:50;;;;;;;;;;;29.20;47.30;;;;;;5126514;27;20279;-66
2022/08/25 11:28:21;;;;;;;;;;;29.20;47.10;;;;;;5132379;27;19919;-65
2022/08/25 11:30:49;;;;;;;;;;;29.30;47.30;;;;;;5128130;27;19995;-67
2022/08/25 11:33:17;;;;;;;;;;;29.40;47.00;;;;;;5125849;27;19924;-69
2022/08/25 11:35:49;;;;;;;;;;;29.50;47.00;;;;;;5128268;27;19919;-67
2022/08/25 11:38:24;;;;;;;;;;;29.50;47.10;;;;;;5129673;27;19934;-65
2022/08/25 11:40:57;;;;;;;;;;;29.50;47.10;;;;;;5127781;27;20896;-67
2022/08/25 11:43:42;;;;;;;;;;;29.40;46.90;;;;;;5134140;27;19923;-68
2022/08/25 11:46:18;;;;;;;;;;;29.30;47.00;;;;;;5127519;27;19927;-66
2022/08/25 11:48:51;;;;;;;;;;;29.30;47.10;;;;;;5128547;27;20408;-67
2022/08/25 11:51:31;;;;;;;;;;;29.40;46.90;;;;;;5134499;27;19920;-67
2022/08/25 11:54:08;;;;;;;;;;;29.40;46.70;;;;;;5129544;27;19926;-66
2022/08/25 11:56:37;;;;;;;;;;;29.30;46.50;;;;;;5128480;27;19919;-66
2022/08/25 11:59:05;;;;;;;;;;;29.30;46.70;;;;;;5129413;27;19930;-67
2022/08/25 12:01:50;;;;;;;;;;;29.30;46.70;;;;;;5129050;27;19923;-67
2022/08/25 12:04:32;;;;;;;;;;;29.30;46.50;;;;;;5125492;27;19920;-67
2022/08/25 12:07:17;;;;;;;;;;;29.30;46.30;;;;;;5129886;27;19919;-67
2022/08/25 12:10:03;;;;;;;;;;;29.30;46.70;;;;;;5131914;27;19926;-67
2022/08/25 12:12:35;;;;;;;;;;;29.30;45.80;;;;;;5128524;27;19925;-67
2022/08/25 12:15:15;;;;;;;;;;;29.30;45.50;;;;;;5132794;27;19926;-65
2022/08/25 12:17:41;;;;;;;;;;;29.30;45.70;;;;;;5131341;27;20006;-67
2022/08/25 12:20:08;;;;;;;;;;;29.40;45.40;;;;;;5131075;27;19919;-68
2022/08/25 12:22:40;;;;;;;;;;;29.50;45.40;;;;;;5130990;27;20022;-67
2022/08/25 12:25:10;;;;;;;;;;;29.60;44.80;;;;;;5133137;27;19966;-67
2022/08/25 12:27:42;;;;;;;;;;;29.60;44.10;;;;;;5130728;27;19923;-66
2022/08/25 12:30:13;;;;;;;;;;;29.60;43.90;;;;;;5130624;27;19926;-68
2022/08/25 12:32:55;;;;;;;;;;;29.60;43.70;;;;;;5127801;27;19980;-68
2022/08/25 12:35:28;;;;;;;;;;;29.60;42.80;;;;;;5130228;27;19976;-66
2022/08/25 12:37:59;;;;;;;;;;;29.50;43.60;;;;;;5129903;27;20015;-67
2022/08/25 12:40:28;;;;;;;;;;;29.40;43.80;;;;;;5130236;27;20383;-67
2022/08/25 12:43:04;;;;;;;;;;;29.50;42.90;;;;;;5128135;27;19964;-67
2022/08/25 12:45:33;;;;;;;;;;;29.50;43.00;;;;;;5123018;27;19919;-67
2022/08/25 12:48:14;;;;;;;;;;;29.60;43.10;;;;;;5124165;27;19919;-67
2022/08/25 12:50:43;;;;;;;;;;;29.60;43.00;;;;;;5132463;27;19926;-66
2022/08/25 12:53:11;;;;;;;;;;;29.60;42.30;;;;;;5127508;27;19927;-68
2022/08/25 12:55:40;;;;;;;;;;;29.60;42.30;;;;;;5128729;27;19925;-67
2022/08/25 12:58:08;;;;;;;;;;;29.60;41.90;;;;;;5133832;27;19919;-67
2022/08/25 13:00:45;;;;;;;;;;;29.80;42.00;;;;;;5129863;27;19919;-66
2022/08/25 13:03:24;;;;;;;;;;;29.80;42.60;;;;;;5130043;27;19968;-68
2022/08/25 13:06:09;;;;;;;;;;;29.80;42.90;;;;;;5138223;27;19919;-66
2022/08/25 13:08:46;;;;;;;;;;;29.80;42.20;;;;;;5131581;27;20300;-66
2022/08/25 13:11:15;;;;;;;;;;;29.80;42.20;;;;;;5131711;27;20382;-67
2022/08/25 13:13:48;;;;;;;;;;;29.80;42.30;;;;;;5124516;27;19954;-67
2022/08/25 13:16:16;;;;;;;;;;;29.90;41.60;;;;;;5130601;27;19920;-66
2022/08/25 13:18:43;;;;;;;;;;;29.90;41.80;;;;;;5124633;27;19928;-67
2022/08/25 13:21:13;;;;;;;;;;;30.00;41.70;;;;;;5132682;27;19924;-67
2022/08/25 13:23:41;;;;;;;;;;;29.90;41.80;;;;;;5131612;27;19920;-67
2022/08/25 13:26:09;;;;;;;;;;;29.80;42.60;;;;;;5128478;27;19923;-67
2022/08/25 13:28:38;;;;;;;;;;;29.90;42.30;;;;;;5129688;27;19926;-67
2022/08/25 13:31:09;;;;;;;;;;;29.80;42.30;;;;;;5125914;27;20019;-67
2022/08/25 13:33:36;;;;;;;;;;;29.80;42.90;;;;;;5131825;27;20521;-66
2022/08/25 13:38:48;;;;;;;;;;;29.80;43.10;;;;;;5128332;27;19926;-66
2022/08/25 13:41:22;;;;;;;;;;;29.60;43.30;;;;;;5126458;27;19926;-64
2022/08/25 13:43:49;;;;;;;;;;;29.60;43.60;;;;;;5126123;27;19919;-66
2022/08/25 13:46:20;;;;;;;;;;;29.60;43.50;;;;;;5135695;27;19920;-65
2022/08/25 13:48:46;;;;;;;;;;;29.50;43.70;;;;;;5131261;27;19942;-66
2022/08/25 13:51:19;;;;;;;;;;;29.50;43.80;;;;;;5127943;27;19919;-68
2022/08/25 13:53:53;;;;;;;;;;;29.60;43.90;;;;;;5131873;27;19920;-65
2022/08/25 13:56:28;;;;;;;;;;;29.60;43.70;;;;;;5131398;27;19923;-66
2022/08/25 13:58:57;;;;;;;;;;;29.60;43.30;;;;;;5119210;27;19951;-67
2022/08/25 14:01:26;;;;;;;;;;;29.60;43.80;;;;;;5127101;27;20291;-65
2022/08/25 14:03:54;;;;;;;;;;;29.80;43.10;;;;;;5130558;27;19919;-66
2022/08/25 14:06:21;;;;;;;;;;;29.70;42.60;;;;;;5128901;27;19919;-67
2022/08/25 14:08:49;;;;;;;;;;;29.70;43.30;;;;;;5128678;27;19927;-67
2022/08/25 14:11:27;;;;;;;;;;;29.60;42.70;;;;;;5131187;27;20364;-65
2022/08/25 14:13:59;;;;;;;;;;;29.50;42.50;;;;;;5131673;27;19957;-67
2022/08/25 14:16:28;;;;;;;;;;;29.50;42.70;;;;;;5127212;27;19924;-66
2022/08/25 14:18:56;;;;;;;;;;;29.40;43.30;;;;;;5126847;27;19927;-67
2022/08/25 14:21:24;;;;;;;;;;;29.50;42.20;;;;;;5130935;27;19920;-66
2022/08/25 14:23:51;;;;;;;;;;;29.50;40.90;;;;;;5127223;27;19919;-67
2022/08/25 14:26:18;;;;;;;;;;;29.40;41.30;;;;;;5131293;27;20387;-67
2022/08/25 14:28:45;;;;;;;;;;;29.30;42.10;;;;;;5128584;27;19927;-65
2022/08/25 14:31:13;;;;;;;;;;;29.30;42.50;;;;;;5133378;27;19918;-66
2022/08/25 14:33:50;;;;;;;;;;;29.20;41.30;;;;;;5122195;27;19919;-67
2022/08/25 14:36:17;;;;;;;;;;;29.20;42.00;;;;;;5129044;27;19959;-66
2022/08/25 14:38:44;;;;;;;;;;;29.20;42.80;;;;;;5130828;27;19926;-66
2022/08/25 14:41:11;;;;;;;;;;;29.10;42.40;;;;;;5131186;27;19926;-65
2022/08/25 14:43:37;;;;;;;;;;;29.10;42.10;;;;;;5129406;28;20380;-66